Sinajana, Guam
Current Conditions -  °F | °C
As of 1:54 PM on Wednesday 22 Oct 2014 (Local Time) from PGUM Reporting Station
Clear Clear  
Wind Chill: 87°   Ceiling: Unl
Heat Index: 95°   Visibility: 10mi
Dew Point: 74°   Wind: 6mph
Humidity: 65%   Direction: 150°SSE
Pressure: 29.79"   Gusts: NA
Location:  13.46°N, 144.75°E
Report Text: PGUM 220354Z 15005KT 10SM CLR 31/23 A2979 RMK AO2 SLP078 T03060233
Loading
Personal Weather Stations






























Interactive Weather Map
Tropical Storm Tracking
New forecast layout! Learn more

10-Day Weather Forecast

Advertisements
Track Severe Weather on mobile